KSBP

San Louis Obispo

Airport
ICAO code
KSBP
Summary
ICAO Region
NAM
ICAO Territory
Location

San Luis Obispo, California,

Serving
San Luis Obispo County
Coordinates
35° 14' 16" N , 120° 38' 28" W
KCC
Metar
KSBP 252356Z 31014KT 10SM CLR 18/11 A3001 RMK AO2 SLP160 T01780106 10233 20161 56007

Description

San Luis Obispo County Regional Airport (IATA: SBP), also known as McChesney Field, is an airport located in San Luis Obispo, California serving San Luis Obispo County.

Climatology

Dry-summer subtropical ”Mediterranean" climate (Köppen climate classification Csb) - characterized by warm, dry summers and mild winters.

Runways

Designator Length Width Surface Rops
7/25 994 30 ASP Yes/Yes
11/29 1615 46 ASP Yes/Yes

Airport map

Aerial View

SKYbrary Partners:

Safety knowledge contributed by: